Minerva Grace — SVBN7 — position and weather

sailwx.info

Track history (hours):
 
Tides and Currents Weather Stations Pressure Air Temp Water Temp Dewpoint Dewpoint Depression Visibility Wind Speed Wind Dir Waves Ship Positions

Minerva Grace

Last reported at 2016-Jul-29 17:32 UTC. Time now 2016-Jul-29 17:57 UTC.
Position N 51°24' E 002°34'.

Length 183 m; draft 10.1 m.

Type: Ship (hazmat cat A). MMSI: 215925000.

Date/timePositionNaut miles runAvg speedWind from/ knotsBaromVisibWave heightAir tempDewpointWater temp
2016-Jul-29 17:32N 51°24' E 002°34'0 0.0
2016-Jul-29 16:32N 51°24' E 002°34'0 0.0
2016-Jul-29 15:32N 51°24' E 002°34'0 0.0
2016-Jul-29 14:32N 51°24' E 002°34'0 0.0
2016-Jul-29 13:32N 51°24' E 002°34'0 0.0
2016-Jul-29 12:32N 51°24' E 002°34'0 0.0
2016-Jul-29 11:32N 51°24' E 002°34'0 0.0
2016-Jul-29 10:32N 51°24' E 002°34'0 0.1
2016-Jul-29 09:32N 51°24' E 002°34'0 0.1
2016-Jul-29 08:32N 51°24' E 002°34'0 0.0
2016-Jul-29 07:32N 51°24' E 002°34'0 0.0
2016-Jul-29 06:32N 51°24' E 002°34'0 0.0
2016-Jul-29 05:32N 51°24' E 002°34'0 0.1
2016-Jul-29 04:32N 51°24' E 002°34'0 0.0
2016-Jul-29 03:33N 51°24' E 002°34'0 0.0
2016-Jul-29 02:34N 51°24' E 002°34'0 0.1
2016-Jul-29 01:34N 51°24' E 002°34'0 0.1
2016-Jul-29 00:33N 51°24' E 002°34'8 7.6
2016-Jul-28 23:34N 51°22' E 002°46'1312.7
2016-Jul-28 22:33N 51°24' E 003°06'1413.9
2016-Jul-28 21:34N 51°25' E 003°28'1010.1
2016-Jul-28 20:33N 51°23' E 003°44'10 9.7
2016-Jul-28 19:33N 51°26' E 003°58'9 8.6
2016-Jul-28 18:33N 51°24' E 004°12'9 8.9
2016-Jul-28 17:34N 51°17' E 004°20'0 0.2
2016-Jul-28 16:34N 51°16' E 004°20'1 0.7
2016-Jul-28 15:34N 51°16' E 004°21'0 0.0
2016-Jul-28 14:31N 51°16' E 004°21'0 0.0
2016-Jul-28 13:31N 51°16' E 004°21'0 0.0
2016-Jul-28 12:31N 51°16' E 004°21'0 0.0
2016-Jul-28 11:31N 51°16' E 004°21'0 0.0
2016-Jul-28 10:28N 51°16' E 004°21'0 0.0
2016-Jul-28 09:31N 51°16' E 004°21'0 0.0
2016-Jul-28 08:31N 51°16' E 004°21'0 0.0
2016-Jul-28 07:31N 51°16' E 004°21'0 0.0
2016-Jul-28 06:28N 51°16' E 004°21'0 0.0
2016-Jul-28 05:28N 51°16' E 004°21'0 0.0
2016-Jul-28 04:31N 51°16' E 004°21'0 0.0
2016-Jul-28 03:28N 51°16' E 004°21'0 0.0
2016-Jul-28 02:31N 51°16' E 004°21'0 0.0
2016-Jul-28 01:31N 51°16' E 004°21'0 0.0
2016-Jul-28 00:31N 51°16' E 004°21'0 0.0
2016-Jul-27 23:31N 51°16' E 004°21'0 0.0
2016-Jul-27 22:31N 51°16' E 004°21'0 0.0
2016-Jul-27 21:31N 51°16' E 004°21'0 0.0
2016-Jul-27 20:31N 51°16' E 004°21'0 0.0
2016-Jul-27 19:31N 51°16' E 004°21'0 0.0
2016-Jul-27 18:31N 51°16' E 004°21'0 0.0
2016-Jul-27 17:31N 51°16' E 004°21'0 0.0
2016-Jul-27 16:31N 51°16' E 004°21'0 0.0
2016-Jul-27 15:31N 51°16' E 004°21'0 0.0
2016-Jul-27 14:31N 51°16' E 004°21'0 0.0
2016-Jul-27 13:31N 51°16' E 004°21'0 0.0
2016-Jul-27 12:31N 51°16' E 004°21'0 0.0
2016-Jul-27 11:31N 51°16' E 004°21'0 0.0
2016-Jul-27 10:31N 51°16' E 004°21'0 0.0
2016-Jul-27 09:31N 51°16' E 004°21'0 0.0
2016-Jul-27 08:31N 51°16' E 004°21'0 0.0
2016-Jul-27 07:31N 51°16' E 004°21'0 0.0
2016-Jul-27 06:31N 51°16' E 004°21'0 0.0
2016-Jul-27 05:28N 51°16' E 004°21'0 0.0
2016-Jul-27 04:31N 51°16' E 004°21'0 0.0
2016-Jul-27 03:31N 51°16' E 004°21'0 0.0
2016-Jul-27 02:31N 51°16' E 004°21'0 0.0
2016-Jul-27 01:31N 51°16' E 004°21'0 0.0
2016-Jul-27 00:31N 51°16' E 004°21'0 0.0
2016-Jul-26 23:28N 51°16' E 004°21'0 0.0
2016-Jul-26 22:31N 51°16' E 004°21'0 0.0
2016-Jul-26 21:31N 51°16' E 004°21'0 0.0
2016-Jul-26 20:31N 51°16' E 004°21'0 0.0
2016-Jul-26 19:22N 51°16' E 004°21'0 0.0
2016-Jul-26 18:28N 51°16' E 004°21'0 0.0
2016-Jul-26 17:28N 51°16' E 004°21'0 0.0
2016-Jul-26 16:31N 51°16' E 004°21'0 0.0
2016-Jul-26 15:31N 51°16' E 004°21'0 0.0
2016-Jul-26 14:31N 51°16' E 004°21'0 0.0
2016-Jul-26 13:28N 51°16' E 004°21'0 0.0
2016-Jul-26 12:31N 51°16' E 004°21'0 0.0
2016-Jul-26 11:28N 51°16' E 004°21'0 0.0
2016-Jul-26 10:31N 51°16' E 004°21'0 0.0
2016-Jul-26 09:31N 51°16' E 004°21'0 0.1
2016-Jul-26 08:31N 51°16' E 004°22'4 3.4
2016-Jul-26 07:25N 51°20' E 004°19'0 0.0
2016-Jul-26 06:31N 51°20' E 004°19'0 0.0
2016-Jul-26 05:31N 51°20' E 004°19'0 0.0
2016-Jul-26 04:31N 51°20' E 004°19'0 0.0
2016-Jul-26 03:31N 51°20' E 004°19'0 0.0
2016-Jul-26 02:25N 51°20' E 004°19'0 0.0
2016-Jul-26 01:31N 51°20' E 004°19'0 0.0
2016-Jul-26 00:28N 51°20' E 004°19'0 0.0
2016-Jul-25 23:31N 51°20' E 004°19'0 0.0
2016-Jul-25 22:31N 51°20' E 004°19'0 0.0
2016-Jul-25 21:31N 51°20' E 004°19'0 0.0
2016-Jul-25 20:31N 51°20' E 004°19'0 0.0
2016-Jul-25 19:19N 51°20' E 004°19'0 0.0
2016-Jul-25 18:31N 51°20' E 004°19'0 0.0
2016-Jul-25 17:22N 51°20' E 004°19'0 0.0
2016-Jul-25 16:16N 51°20' E 004°19'0 0.0
2016-Jul-25 15:28N 51°20' E 004°19'0 0.0
2016-Jul-25 13:22N 51°20' E 004°19'0 0.0
2016-Jul-25 12:28N 51°20' E 004°19'0 0.0
2016-Jul-25 11:25N 51°20' E 004°19'0 0.0
2016-Jul-25 10:28N 51°20' E 004°19'0 0.0
2016-Jul-25 09:28N 51°20' E 004°19'0 0.0
2016-Jul-25 08:31N 51°20' E 004°19'0 0.0
2016-Jul-25 07:28N 51°20' E 004°19'0 0.0
2016-Jul-25 06:25N 51°20' E 004°19'0 0.0
2016-Jul-25 05:28N 51°20' E 004°19'0 0.0
2016-Jul-25 04:31N 51°20' E 004°19'0 0.0
2016-Jul-25 03:13N 51°20' E 004°19'0 0.0
2016-Jul-25 02:31N 51°20' E 004°19'0 0.0
2016-Jul-25 01:31N 51°20' E 004°19'0 0.0
2016-Jul-25 00:25N 51°20' E 004°19'0 0.0
2016-Jul-24 23:31N 51°20' E 004°19'0 0.0
2016-Jul-24 22:31N 51°20' E 004°19'0 0.0
2016-Jul-24 21:31N 51°20' E 004°19'0 0.0
2016-Jul-24 20:31N 51°20' E 004°19'0 0.0
2016-Jul-24 19:28N 51°20' E 004°19'0 0.0
2016-Jul-24 18:25N 51°20' E 004°19'0 0.0
2016-Jul-24 17:31N 51°20' E 004°19'0 0.0
2016-Jul-24 16:19N 51°20' E 004°19'0 0.0
2016-Jul-24 15:31N 51°20' E 004°19'0 0.0
2016-Jul-24 14:31N 51°20' E 004°19'0 0.0
2016-Jul-24 13:28N 51°20' E 004°19'1 0.7
2016-Jul-24 12:33N 51°20' E 004°18'1 1.0
2016-Jul-24 11:33N 51°21' E 004°17'3 2.6
2016-Jul-24 10:33N 51°22' E 004°13'7 7.3
2016-Jul-24 09:33N 51°24' E 004°02'5 5.3
2016-Jul-24 08:33N 51°22' E 003°54'8 7.9
2016-Jul-24 07:33N 51°24' E 003°42'7 7.0
2016-Jul-24 06:33N 51°25' E 003°31'1211.9
2016-Jul-24 05:33N 51°24' E 003°12'1312.6
2016-Jul-24 04:32N 51°25' E 002°52'1111.0
2016-Jul-24 03:33N 51°22' E 002°35'2 2.3
2016-Jul-24 02:32N 51°25' E 002°36'0 0.1
2016-Jul-24 01:32N 51°25' E 002°36'0 0.2
2016-Jul-24 00:29N 51°25' E 002°36'0 0.0
2016-Jul-23 23:32N 51°25' E 002°36'0 0.0
2016-Jul-23 22:32N 51°25' E 002°36'0 0.0
2016-Jul-23 21:32N 51°25' E 002°36'0 0.0
2016-Jul-23 20:32N 51°25' E 002°36'0 0.1
2016-Jul-23 19:32N 51°25' E 002°36'0 0.1
2016-Jul-23 18:32N 51°25' E 002°36'0 0.0
2016-Jul-23 17:32N 51°25' E 002°36'0 0.0
2016-Jul-23 16:32N 51°25' E 002°36'0 0.0
2016-Jul-23 15:32N 51°25' E 002°36'0 0.0
2016-Jul-23 14:32N 51°25' E 002°36'0 0.1
2016-Jul-23 13:32N 51°25' E 002°36'0 0.1
2016-Jul-23 12:20N 51°25' E 002°36'0 0.0
2016-Jul-23 11:32N 51°25' E 002°36'0 0.0
2016-Jul-23 10:29N 51°25' E 002°36'0 0.0
2016-Jul-23 09:32N 51°25' E 002°36'0 0.0
2016-Jul-23 08:32N 51°25' E 002°36'0 0.0
2016-Jul-23 07:26N 51°25' E 002°36'0 0.2
2016-Jul-23 06:29N 51°25' E 002°36'0 0.0
2016-Jul-23 04:32N 51°25' E 002°36'0 0.0
2016-Jul-23 03:32N 51°25' E 002°36'0 0.0
2016-Jul-23 02:29N 51°25' E 002°36'0 0.0
2016-Jul-23 01:32N 51°25' E 002°36'0 0.2
2016-Jul-23 00:32N 51°25' E 002°36'0 0.1
2016-Jul-22 23:29N 51°25' E 002°36'0 0.0
2016-Jul-22 22:20N 51°25' E 002°36'0 0.0
2016-Jul-22 21:30N 51°25' E 002°36'0 0.0
2016-Jul-22 20:29N 51°25' E 002°36'0 0.0
2016-Jul-22 19:14N 51°25' E 002°36'0 0.1
2016-Jul-22 18:32N 51°25' E 002°36'0 0.1
2016-Jul-22 17:29N 51°25' E 002°36'0 0.0
2016-Jul-22 16:26N 51°25' E 002°36'0 0.0
2016-Jul-22 15:32N 51°25' E 002°36'0 0.0
2016-Jul-22 14:29N 51°25' E 002°36'0 0.0
2016-Jul-22 13:29N 51°25' E 002°36'0 0.2
2016-Jul-22 12:32N 51°25' E 002°36'0 0.1
2016-Jul-22 11:29N 51°25' E 002°36'0 0.0
2016-Jul-22 10:26N 51°25' E 002°36'0 0.0
2016-Jul-22 09:32N 51°25' E 002°36'0 0.0
2016-Jul-22 08:32N 51°25' E 002°36'0 0.0
2016-Jul-22 07:32N 51°25' E 002°36'0 0.1
2016-Jul-22 04:32N 51°25' E 002°36'0 0.0
2016-Jul-22 03:32N 51°25' E 002°36'0 0.0
2016-Jul-22 02:32N 51°25' E 002°36'0 0.0
2016-Jul-22 01:32N 51°25' E 002°36'0 0.1
2016-Jul-22 00:32N 51°25' E 002°36'0 0.2
2016-Jul-21 23:32N 51°25' E 002°36'0 0.1
2016-Jul-21 22:32N 51°25' E 002°36'0 0.0
2016-Jul-21 21:32N 51°25' E 002°36'0 0.0
2016-Jul-21 20:32N 51°25' E 002°36'0 0.0
2016-Jul-21 19:32N 51°25' E 002°36'0 0.0
2016-Jul-21 18:32N 51°25' E 002°36'0 0.2
2016-Jul-21 17:32N 51°25' E 002°36'0 0.0
2016-Jul-21 16:32N 51°25' E 002°36'0 0.0
2016-Jul-21 15:26N 51°25' E 002°36'0 0.0
2016-Jul-21 14:29N 51°25' E 002°36'0 0.0
2016-Jul-21 13:32N 51°25' E 002°36'0 0.1
2016-Jul-21 12:32N 51°25' E 002°36'0 0.2
2016-Jul-21 11:20N 51°25' E 002°36'0 0.1
2016-Jul-21 10:20N 51°25' E 002°36'0 0.0
2016-Jul-21 09:32N 51°25' E 002°36'0 0.0
2016-Jul-21 08:17N 51°25' E 002°36'0 0.0
2016-Jul-21 07:29N 51°25' E 002°36'0 0.1
2016-Jul-21 06:26N 51°25' E 002°36'0 0.2
2016-Jul-21 05:32N 51°25' E 002°36'0 0.0
2016-Jul-21 04:32N 51°25' E 002°36'0 0.0
2016-Jul-21 03:32N 51°25' E 002°36'0 0.0
2016-Jul-21 02:32N 51°25' E 002°36'0 0.0
2016-Jul-21 01:32N 51°25' E 002°36'0 0.1
2016-Jul-21 00:32N 51°25' E 002°36'0 0.0
2016-Jul-20 23:32N 51°25' E 002°36'0 0.2
2016-Jul-20 22:32N 51°25' E 002°36'0 0.1
2016-Jul-20 21:32N 51°25' E 002°36'0 0.0
2016-Jul-20 20:32N 51°25' E 002°36'0 0.1
2016-Jul-20 18:29N 51°25' E 002°36'0 0.1
2016-Jul-20 17:32N 51°25' E 002°36'0 0.0
2016-Jul-20 16:32N 51°25' E 002°36'0 0.0
2016-Jul-20 15:32N 51°25' E 002°36'0 0.1
2016-Jul-20 14:32N 51°25' E 002°36'0 0.0
2016-Jul-20 12:32N 51°25' E 002°36'0 0.1
2016-Jul-20 11:32N 51°25' E 002°36'0 0.2
2016-Jul-20 10:29N 51°25' E 002°36'0 0.1
2016-Jul-20 09:33N 51°24' E 002°36'0 0.0
2016-Jul-20 08:33N 51°24' E 002°36'1 0.8
2016-Jul-20 07:34N 51°24' E 002°35'8 8.2
2016-Jul-20 06:34N 51°20' E 002°23'1010.1
2016-Jul-20 05:34N 51°15' E 002°09'1110.7
2016-Jul-20 04:34N 51°10' E 001°54'1111.1
2016-Jul-20 03:33N 51°03' E 001°41'1212.2
2016-Jul-20 02:34N 50°54' E 001°28'1412.8
2016-Jul-20 01:30N 50°41' E 001°19'1212.4
2016-Jul-20 00:33N 50°34' E 001°05'1211.6
2016-Jul-19 23:28N 50°28' E 000°48'1112.1
2016-Jul-19 22:34N 50°25' E 000°31'1312.8
2016-Jul-19 21:34N 50°21' E 000°12'1313.4
2016-Jul-19 20:33N 50°17' W 000°08'1413.6
2016-Jul-19 19:34N 50°13' W 000°28'1313.3
2016-Jul-19 18:34N 50°10' W 000°48'1312.6
2016-Jul-19 17:33N 50°08' W 001°08'  
Track history (hours):
 
Tides and Currents Weather Stations Pressure Air Temp Water Temp Dewpoint Dewpoint Depression Visibility Wind Speed Wind Dir Waves Ship Positions

Minerva Grace

Last reported at 2016-Jul-29 17:32 UTC. Time now 2016-Jul-29 17:57 UTC.
Position N 51°24' E 002°34'.

Length 183 m; draft 10.1 m.

Type: Ship (hazmat cat A). MMSI: 215925000.

Date/timePositionNaut miles runAvg speedWind from/ knotsBaromVisibWave heightAir tempDewpointWater temp
2016-Jul-29 17:32N 51°24' E 002°34'0 0.0
2016-Jul-29 16:32N 51°24' E 002°34'0 0.0
2016-Jul-29 15:32N 51°24' E 002°34'0 0.0
2016-Jul-29 14:32N 51°24' E 002°34'0 0.0
2016-Jul-29 13:32N 51°24' E 002°34'0 0.0
2016-Jul-29 12:32N 51°24' E 002°34'0 0.0
2016-Jul-29 11:32N 51°24' E 002°34'0 0.0
2016-Jul-29 10:32N 51°24' E 002°34'0 0.1
2016-Jul-29 09:32N 51°24' E 002°34'0 0.1
2016-Jul-29 08:32N 51°24' E 002°34'0 0.0
2016-Jul-29 07:32N 51°24' E 002°34'0 0.0
2016-Jul-29 06:32N 51°24' E 002°34'0 0.0
2016-Jul-29 05:32N 51°24' E 002°34'0 0.1
2016-Jul-29 04:32N 51°24' E 002°34'0 0.0
2016-Jul-29 03:33N 51°24' E 002°34'0 0.0
2016-Jul-29 02:34N 51°24' E 002°34'0 0.1
2016-Jul-29 01:34N 51°24' E 002°34'0 0.1
2016-Jul-29 00:33N 51°24' E 002°34'8 7.6
2016-Jul-28 23:34N 51°22' E 002°46'1312.7
2016-Jul-28 22:33N 51°24' E 003°06'1413.9
2016-Jul-28 21:34N 51°25' E 003°28'1010.1
2016-Jul-28 20:33N 51°23' E 003°44'10 9.7
2016-Jul-28 19:33N 51°26' E 003°58'9 8.6
2016-Jul-28 18:33N 51°24' E 004°12'9 8.9
2016-Jul-28 17:34N 51°17' E 004°20'0 0.2
2016-Jul-28 16:34N 51°16' E 004°20'1 0.7
2016-Jul-28 15:34N 51°16' E 004°21'0 0.0
2016-Jul-28 14:31N 51°16' E 004°21'0 0.0
2016-Jul-28 13:31N 51°16' E 004°21'0 0.0
2016-Jul-28 12:31N 51°16' E 004°21'0 0.0
2016-Jul-28 11:31N 51°16' E 004°21'0 0.0
2016-Jul-28 10:28N 51°16' E 004°21'0 0.0
2016-Jul-28 09:31N 51°16' E 004°21'0 0.0
2016-Jul-28 08:31N 51°16' E 004°21'0 0.0
2016-Jul-28 07:31N 51°16' E 004°21'0 0.0
2016-Jul-28 06:28N 51°16' E 004°21'0 0.0
2016-Jul-28 05:28N 51°16' E 004°21'0 0.0
2016-Jul-28 04:31N 51°16' E 004°21'0 0.0
2016-Jul-28 03:28N 51°16' E 004°21'0 0.0
2016-Jul-28 02:31N 51°16' E 004°21'0 0.0
2016-Jul-28 01:31N 51°16' E 004°21'0 0.0
2016-Jul-28 00:31N 51°16' E 004°21'0 0.0
2016-Jul-27 23:31N 51°16' E 004°21'0 0.0
2016-Jul-27 22:31N 51°16' E 004°21'0 0.0
2016-Jul-27 21:31N 51°16' E 004°21'0 0.0
2016-Jul-27 20:31N 51°16' E 004°21'0 0.0
2016-Jul-27 19:31N 51°16' E 004°21'0 0.0
2016-Jul-27 18:31N 51°16' E 004°21'0 0.0
2016-Jul-27 17:31N 51°16' E 004°21'0 0.0
2016-Jul-27 16:31N 51°16' E 004°21'0 0.0
2016-Jul-27 15:31N 51°16' E 004°21'0 0.0
2016-Jul-27 14:31N 51°16' E 004°21'0 0.0
2016-Jul-27 13:31N 51°16' E 004°21'0 0.0
2016-Jul-27 12:31N 51°16' E 004°21'0 0.0
2016-Jul-27 11:31N 51°16' E 004°21'0 0.0
2016-Jul-27 10:31N 51°16' E 004°21'0 0.0
2016-Jul-27 09:31N 51°16' E 004°21'0 0.0
2016-Jul-27 08:31N 51°16' E 004°21'0 0.0
2016-Jul-27 07:31N 51°16' E 004°21'0 0.0
2016-Jul-27 06:31N 51°16' E 004°21'0 0.0
2016-Jul-27 05:28N 51°16' E 004°21'0 0.0
2016-Jul-27 04:31N 51°16' E 004°21'0 0.0
2016-Jul-27 03:31N 51°16' E 004°21'0 0.0
2016-Jul-27 02:31N 51°16' E 004°21'0 0.0
2016-Jul-27 01:31N 51°16' E 004°21'0 0.0
2016-Jul-27 00:31N 51°16' E 004°21'0 0.0
2016-Jul-26 23:28N 51°16' E 004°21'0 0.0
2016-Jul-26 22:31N 51°16' E 004°21'0 0.0
2016-Jul-26 21:31N 51°16' E 004°21'0 0.0
2016-Jul-26 20:31N 51°16' E 004°21'0 0.0
2016-Jul-26 19:22N 51°16' E 004°21'0 0.0
2016-Jul-26 18:28N 51°16' E 004°21'0 0.0
2016-Jul-26 17:28N 51°16' E 004°21'0 0.0
2016-Jul-26 16:31N 51°16' E 004°21'0 0.0
2016-Jul-26 15:31N 51°16' E 004°21'0 0.0
2016-Jul-26 14:31N 51°16' E 004°21'0 0.0
2016-Jul-26 13:28N 51°16' E 004°21'0 0.0
2016-Jul-26 12:31N 51°16' E 004°21'0 0.0
2016-Jul-26 11:28N 51°16' E 004°21'0 0.0
2016-Jul-26 10:31N 51°16' E 004°21'0 0.0
2016-Jul-26 09:31N 51°16' E 004°21'0 0.1
2016-Jul-26 08:31N 51°16' E 004°22'4 3.4
2016-Jul-26 07:25N 51°20' E 004°19'0 0.0
2016-Jul-26 06:31N 51°20' E 004°19'0 0.0
2016-Jul-26 05:31N 51°20' E 004°19'0 0.0
2016-Jul-26 04:31N 51°20' E 004°19'0 0.0
2016-Jul-26 03:31N 51°20' E 004°19'0 0.0
2016-Jul-26 02:25N 51°20' E 004°19'0 0.0
2016-Jul-26 01:31N 51°20' E 004°19'0 0.0
2016-Jul-26 00:28N 51°20' E 004°19'0 0.0
2016-Jul-25 23:31N 51°20' E 004°19'0 0.0
2016-Jul-25 22:31N 51°20' E 004°19'0 0.0
2016-Jul-25 21:31N 51°20' E 004°19'0 0.0
2016-Jul-25 20:31N 51°20' E 004°19'0 0.0
2016-Jul-25 19:19N 51°20' E 004°19'0 0.0
2016-Jul-25 18:31N 51°20' E 004°19'0 0.0
2016-Jul-25 17:22N 51°20' E 004°19'0 0.0
2016-Jul-25 16:16N 51°20' E 004°19'0 0.0
2016-Jul-25 15:28N 51°20' E 004°19'0 0.0
2016-Jul-25 13:22N 51°20' E 004°19'0 0.0
2016-Jul-25 12:28N 51°20' E 004°19'0 0.0
2016-Jul-25 11:25N 51°20' E 004°19'0 0.0
2016-Jul-25 10:28N 51°20' E 004°19'0 0.0
2016-Jul-25 09:28N 51°20' E 004°19'0 0.0
2016-Jul-25 08:31N 51°20' E 004°19'0 0.0
2016-Jul-25 07:28N 51°20' E 004°19'0 0.0
2016-Jul-25 06:25N 51°20' E 004°19'0 0.0
2016-Jul-25 05:28N 51°20' E 004°19'0 0.0
2016-Jul-25 04:31N 51°20' E 004°19'0 0.0
2016-Jul-25 03:13N 51°20' E 004°19'0 0.0
2016-Jul-25 02:31N 51°20' E 004°19'0 0.0
2016-Jul-25 01:31N 51°20' E 004°19'0 0.0
2016-Jul-25 00:25N 51°20' E 004°19'0 0.0
2016-Jul-24 23:31N 51°20' E 004°19'0 0.0
2016-Jul-24 22:31N 51°20' E 004°19'0 0.0
2016-Jul-24 21:31N 51°20' E 004°19'0 0.0
2016-Jul-24 20:31N 51°20' E 004°19'0 0.0
2016-Jul-24 19:28N 51°20' E 004°19'0 0.0
2016-Jul-24 18:25N 51°20' E 004°19'0 0.0
2016-Jul-24 17:31N 51°20' E 004°19'0 0.0
2016-Jul-24 16:19N 51°20' E 004°19'0 0.0
2016-Jul-24 15:31N 51°20' E 004°19'0 0.0
2016-Jul-24 14:31N 51°20' E 004°19'0 0.0
2016-Jul-24 13:28N 51°20' E 004°19'1 0.7
2016-Jul-24 12:33N 51°20' E 004°18'1 1.0
2016-Jul-24 11:33N 51°21' E 004°17'3 2.6
2016-Jul-24 10:33N 51°22' E 004°13'7 7.3
2016-Jul-24 09:33N 51°24' E 004°02'5 5.3
2016-Jul-24 08:33N 51°22' E 003°54'8 7.9
2016-Jul-24 07:33N 51°24' E 003°42'7 7.0
2016-Jul-24 06:33N 51°25' E 003°31'1211.9
2016-Jul-24 05:33N 51°24' E 003°12'1312.6
2016-Jul-24 04:32N 51°25' E 002°52'1111.0
2016-Jul-24 03:33N 51°22' E 002°35'2 2.3
2016-Jul-24 02:32N 51°25' E 002°36'0 0.1
2016-Jul-24 01:32N 51°25' E 002°36'0 0.2
2016-Jul-24 00:29N 51°25' E 002°36'0 0.0
2016-Jul-23 23:32N 51°25' E 002°36'0 0.0
2016-Jul-23 22:32N 51°25' E 002°36'0 0.0
2016-Jul-23 21:32N 51°25' E 002°36'0 0.0
2016-Jul-23 20:32N 51°25' E 002°36'0 0.1
2016-Jul-23 19:32N 51°25' E 002°36'0 0.1
2016-Jul-23 18:32N 51°25' E 002°36'0 0.0
2016-Jul-23 17:32N 51°25' E 002°36'0 0.0
2016-Jul-23 16:32N 51°25' E 002°36'0 0.0
2016-Jul-23 15:32N 51°25' E 002°36'0 0.0
2016-Jul-23 14:32N 51°25' E 002°36'0 0.1
2016-Jul-23 13:32N 51°25' E 002°36'0 0.1
2016-Jul-23 12:20N 51°25' E 002°36'0 0.0
2016-Jul-23 11:32N 51°25' E 002°36'0 0.0
2016-Jul-23 10:29N 51°25' E 002°36'0 0.0
2016-Jul-23 09:32N 51°25' E 002°36'0 0.0
2016-Jul-23 08:32N 51°25' E 002°36'0 0.0
2016-Jul-23 07:26N 51°25' E 002°36'0 0.2
2016-Jul-23 06:29N 51°25' E 002°36'0 0.0
2016-Jul-23 04:32N 51°25' E 002°36'0 0.0
2016-Jul-23 03:32N 51°25' E 002°36'0 0.0
2016-Jul-23 02:29N 51°25' E 002°36'0 0.0
2016-Jul-23 01:32N 51°25' E 002°36'0 0.2
2016-Jul-23 00:32N 51°25' E 002°36'0 0.1
2016-Jul-22 23:29N 51°25' E 002°36'0 0.0
2016-Jul-22 22:20N 51°25' E 002°36'0 0.0
2016-Jul-22 21:30N 51°25' E 002°36'0 0.0
2016-Jul-22 20:29N 51°25' E 002°36'0 0.0
2016-Jul-22 19:14N 51°25' E 002°36'0 0.1
2016-Jul-22 18:32N 51°25' E 002°36'0 0.1
2016-Jul-22 17:29N 51°25' E 002°36'0 0.0
2016-Jul-22 16:26N 51°25' E 002°36'0 0.0
2016-Jul-22 15:32N 51°25' E 002°36'0 0.0
2016-Jul-22 14:29N 51°25' E 002°36'0 0.0
2016-Jul-22 13:29N 51°25' E 002°36'0 0.2
2016-Jul-22 12:32N 51°25' E 002°36'0 0.1
2016-Jul-22 11:29N 51°25' E 002°36'0 0.0
2016-Jul-22 10:26N 51°25' E 002°36'0 0.0
2016-Jul-22 09:32N 51°25' E 002°36'0 0.0
2016-Jul-22 08:32N 51°25' E 002°36'0 0.0
2016-Jul-22 07:32N 51°25' E 002°36'0 0.1
2016-Jul-22 04:32N 51°25' E 002°36'0 0.0
2016-Jul-22 03:32N 51°25' E 002°36'0 0.0
2016-Jul-22 02:32N 51°25' E 002°36'0 0.0
2016-Jul-22 01:32N 51°25' E 002°36'0 0.1
2016-Jul-22 00:32N 51°25' E 002°36'0 0.2
2016-Jul-21 23:32N 51°25' E 002°36'0 0.1
2016-Jul-21 22:32N 51°25' E 002°36'0 0.0
2016-Jul-21 21:32N 51°25' E 002°36'0 0.0
2016-Jul-21 20:32N 51°25' E 002°36'0 0.0
2016-Jul-21 19:32N 51°25' E 002°36'0 0.0
2016-Jul-21 18:32N 51°25' E 002°36'0 0.2
2016-Jul-21 17:32N 51°25' E 002°36'0 0.0
2016-Jul-21 16:32N 51°25' E 002°36'0 0.0
2016-Jul-21 15:26N 51°25' E 002°36'0 0.0
2016-Jul-21 14:29N 51°25' E 002°36'0 0.0
2016-Jul-21 13:32N 51°25' E 002°36'0 0.1
2016-Jul-21 12:32N 51°25' E 002°36'0 0.2
2016-Jul-21 11:20N 51°25' E 002°36'0 0.1
2016-Jul-21 10:20N 51°25' E 002°36'0 0.0
2016-Jul-21 09:32N 51°25' E 002°36'0 0.0
2016-Jul-21 08:17N 51°25' E 002°36'0 0.0
2016-Jul-21 07:29N 51°25' E 002°36'0 0.1
2016-Jul-21 06:26N 51°25' E 002°36'0 0.2
2016-Jul-21 05:32N 51°25' E 002°36'0 0.0
2016-Jul-21 04:32N 51°25' E 002°36'0 0.0
2016-Jul-21 03:32N 51°25' E 002°36'0 0.0
2016-Jul-21 02:32N 51°25' E 002°36'0 0.0
2016-Jul-21 01:32N 51°25' E 002°36'0 0.1
2016-Jul-21 00:32N 51°25' E 002°36'0 0.0
2016-Jul-20 23:32N 51°25' E 002°36'0 0.2
2016-Jul-20 22:32N 51°25' E 002°36'0 0.1
2016-Jul-20 21:32N 51°25' E 002°36'0 0.0
2016-Jul-20 20:32N 51°25' E 002°36'0 0.1
2016-Jul-20 18:29N 51°25' E 002°36'0 0.1
2016-Jul-20 17:32N 51°25' E 002°36'0 0.0
2016-Jul-20 16:32N 51°25' E 002°36'0 0.0
2016-Jul-20 15:32N 51°25' E 002°36'0 0.1
2016-Jul-20 14:32N 51°25' E 002°36'0 0.0
2016-Jul-20 12:32N 51°25' E 002°36'0 0.1
2016-Jul-20 11:32N 51°25' E 002°36'0 0.2
2016-Jul-20 10:29N 51°25' E 002°36'0 0.1
2016-Jul-20 09:33N 51°24' E 002°36'0 0.0
2016-Jul-20 08:33N 51°24' E 002°36'1 0.8
2016-Jul-20 07:34N 51°24' E 002°35'8 8.2
2016-Jul-20 06:34N 51°20' E 002°23'1010.1
2016-Jul-20 05:34N 51°15' E 002°09'1110.7
2016-Jul-20 04:34N 51°10' E 001°54'1111.1
2016-Jul-20 03:33N 51°03' E 001°41'1212.2
2016-Jul-20 02:34N 50°54' E 001°28'1412.8
2016-Jul-20 01:30N 50°41' E 001°19'1212.4
2016-Jul-20 00:33N 50°34' E 001°05'1211.6
2016-Jul-19 23:28N 50°28' E 000°48'1112.1
2016-Jul-19 22:34N 50°25' E 000°31'1312.8
2016-Jul-19 21:34N 50°21' E 000°12'1313.4
2016-Jul-19 20:33N 50°17' W 000°08'1413.6
2016-Jul-19 19:34N 50°13' W 000°28'1313.3
2016-Jul-19 18:34N 50°10' W 000°48'1312.6
2016-Jul-19 17:33N 50°08' W 001°08'  

Dump ship's entire track history